Αναφορές Αεροδρομίων

 

KSJC - San Jose, California, USA
Distance from station: ΒΑ 14km
Ενημερώθηκε: 20/07/2024 18:53
Few Clouds
Few Clouds
 Ανεμος από Δ
Ανεμος: Δ 6 km/h
Θερμοκρασία: 22°C
Σημείο Δρόσου: 14°C
Υγρασία: 61%
Βαρόμετρο: 1014.2 hPa
Clouds: Few Clouds
Visibility: 16 km
Cloud details: Few Clouds 1372 m
2024/07/20 15:53 KSJC 201553Z 28003KT 10SM FEW045 22/14 A2995 RMK AO2 SLP142 T02170144
KNUQ - Moffett Nas/Mtn, California, USA
Distance from station: Β 14km
Ενημερώθηκε: 20/07/2024 19:35
Αίθριος
Αίθριος
 Ανεμος από Β
Ανεμος: Β 11 km/h
Θερμοκρασία: 20°C
Σημείο Δρόσου: 15°C
Υγρασία: 73%
Βαρόμετρο: 1014.2 hPa
Clouds: Αίθριος
Visibility: 13 km
2024/07/20 16:35 KNUQ 201635Z AUTO 35006KT 8SM CLR 20/15 A2995 RMK AO2
 
KPAO - Palo Alto, California, USA
Distance from station: ΒΒΔ 23km
Ενημερώθηκε: 20/07/2024 18:47
Αίθριος
Αίθριος
 Ανεμος από Β
Ανεμος: Β 7 km/h
Θερμοκρασία: 19°C
Σημείο Δρόσου: 14°C
Υγρασία: 73%
Βαρόμετρο: 1014.6 hPa
Clouds: Αίθριος
Visibility: 16 km
2024/07/20 15:47 KPAO 201547Z 36004KT 10SM SKC 19/14 A2996
KRHV - San Jose/Reid, California, USA
Distance from station: ΑΒΑ 19km
Ενημερώθηκε: 20/07/2024 18:55
Αίθριος
Αίθριος
 Ανεμος από Β
Ανεμος: Β 6 km/h
Θερμοκρασία: 22°C
Σημείο Δρόσου: 12°C
Υγρασία: 53%
Βαρόμετρο: 1014.6 hPa
Clouds: Αίθριος
Visibility: 16 km
2024/07/20 15:55 KRHV 201555Z 35003KT 10SM SKC 22/12 A2996
 
KOAK - Oakland, California, USA
Distance from station: ΒΒΔ 50km
Ενημερώθηκε: 20/07/2024 18:53
Μερικώς νεφελώδης
Μερικώς νεφελώδης
 Ανεμος από calm
Ανεμος: Απνοια
Θερμοκρασία: 20°C
Σημείο Δρόσου: 14°C
Υγρασία: 69%
Βαρόμετρο: 1014.9 hPa
Clouds: Μερικώς νεφελώδης
Visibility: 16 km
Cloud details: Μερικώς νεφελώδης 6706 m
2024/07/20 15:53 KOAK 201553Z 00000KT 10SM SCT220 20/14 A2997 RMK AO2 SLP148 T02000144
KSQL - San Carlos Airpo, California, USA
Distance from station: ΒΔ 34km
Ενημερώθηκε: 20/07/2024 18:47
Haze, Αίθριος
Haze, Αίθριος
 Ανεμος από Β
Ανεμος: Β 6 km/h
Θερμοκρασία: 19°C
Σημείο Δρόσου: 14°C
Υγρασία: 73%
Βαρόμετρο: 1014.9 hPa
Περίληψη: Haze
Clouds: Αίθριος
Visibility: 11 km
2024/07/20 15:47 KSQL 201547Z 35003KT 7SM HZ CLR 19/14 A2997
 
KSFO - San Francisco, California, USA
Distance from station: ΒΔ 49km
Ενημερώθηκε: 20/07/2024 18:56
Few Clouds
Few Clouds
 Ανεμος από ΒΒΔ
Ανεμος: ΒΒΔ 19 km/h
Θερμοκρασία: 18°C
Σημείο Δρόσου: 13°C
Υγρασία: 73%
Βαρόμετρο: 1014.6 hPa
Clouds: Few Clouds
Visibility: 16 km
Cloud details: Few Clouds 183 m
Few Clouds 6096 m
2024/07/20 15:56 KSFO 201556Z 33010KT 10SM FEW006 FEW200 18/13 A2996 RMK AO2 SLP144 T01780133 $
KE16 - San Martin, California, USA
Distance from station: ΑΝΑ 43km
Ενημερώθηκε: 20/07/2024 19:35
Αίθριος
Αίθριος
 Ανεμος από ΝΝΑ
Ανεμος: ΝΝΑ 15 km/h
Θερμοκρασία: 19°C
Σημείο Δρόσου: 12°C
Υγρασία: 64%
Βαρόμετρο: 1015.2 hPa
Clouds: Αίθριος
Visibility: 16 km
2024/07/20 16:35 KE16 201635Z AUTO 16008KT 10SM CLR 19/12 A2998 RMK AO2
 
KWVI - Watsonville, California, USA
Distance from station: ΝΝΑ 44km
Ενημερώθηκε: 20/07/2024 18:53
Συννεφιά
Συννεφιά
 Ανεμος από calm
Ανεμος: Απνοια
Θερμοκρασία: 15°C
Σημείο Δρόσου: 13°C
Υγρασία: 88%
Βαρόμετρο: 1015.9 hPa
Clouds: Συννεφιά
Visibility: 14 km
Cloud details: Συννεφιά 91 m
2024/07/20 15:53 KWVI 201553Z AUTO 00000KT 9SM OVC003 15/13 A3000 RMK AO2 SLP157 T01500133
KHAF - Half Moon Bay, California, USA
Distance from station: ΔΒΔ 50km
Ενημερώθηκε: 20/07/2024 19:35
Mist, Σχεδόν νεφελώδης
Mist, Σχεδόν νεφελώδης
 Ανεμος από ΝΔ
Ανεμος: ΝΔ 7 km/h
Θερμοκρασία: 15°C
Σημείο Δρόσου: 14°C
Υγρασία: 94%
Βαρόμετρο: 1015.9 hPa
Περίληψη: Mist
Clouds: Σχεδόν νεφελώδης
Visibility: 8 km
Cloud details: Σχεδόν νεφελώδης 274 m
2024/07/20 16:35 KHAF 201635Z AUTO 22004KT 5SM BR BKN009 15/14 A3000 RMK AO2
 
KHWD - Hayward, California, USA
Distance from station: Β 44km
Ενημερώθηκε: 20/07/2024 18:54
Αίθριος
Αίθριος
 Ανεμος από Δ
Ανεμος: Δ 7 km/h
Θερμοκρασία: 20°C
Σημείο Δρόσου: 13°C
Υγρασία: 64%
Βαρόμετρο: 1014.6 hPa
Clouds: Αίθριος
Visibility: 16 km
2024/07/20 15:54 KHWD 201554Z 26004KT 10SM CLR 20/13 A2996 RMK AO2 SLP152 T02000133
KLVK - Livermore, California, USA
Distance from station: ΒΒΑ 51km
Ενημερώθηκε: 20/07/2024 18:53
Αίθριος
Αίθριος
 Ανεμος από calm
Ανεμος: Απνοια
Θερμοκρασία: 23°C
Σημείο Δρόσου: 13°C
Υγρασία: 53%
Βαρόμετρο: 1013.9 hPa
Clouds: Αίθριος
Visibility: 16 km
2024/07/20 15:53 KLVK 201553Z 00000KT 10SM CLR 23/13 A2994 RMK AO2 SLP132 T02330128 $